Time;durP1;ratioP1;P1;durP2;ratioP2;P2;SDS_P1;SDS_P2;PMS_P1;PMS_P2;Temp;Humidity;BMP_temperature;BMP_pressure;BME280_temperature;BME280_humidity;BME280_pressure;Samples;Min_cycle;Max_cycle;Signal;HPM_P1;HPM_P2
2022/09/26 00:02:00;;;;;;;5.07;2.78;;;;;;;12.98;54.31;93901.91;6166107;23;19993;-80
2022/09/26 00:04:27;;;;;;;5.63;3.03;;;;;;;12.96;54.44;93906.78;6166098;23;20173;-81
2022/09/26 00:06:54;;;;;;;7.78;3.25;;;;;;;12.92;54.14;93908.53;6165707;23;20038;-81
2022/09/26 00:09:21;;;;;;;7.03;3.47;;;;;;;12.89;54.65;93917.25;6166215;23;19997;-81
2022/09/26 00:11:47;;;;;;;6.13;2.90;;;;;;;12.89;55.02;93909.22;6166328;23;19993;-81
2022/09/26 00:14:20;;;;;;;6.22;3.88;;;;;;;12.87;55.16;93894.59;6165991;23;20009;-80
2022/09/26 00:16:46;;;;;;;4.63;3.25;;;;;;;12.86;55.36;93891.13;6166329;23;20001;-81
2022/09/26 00:19:11;;;;;;;7.10;3.63;;;;;;;12.89;56.62;93887.03;6166030;23;20005;-81
2022/09/26 00:21:37;;;;;;;7.70;3.35;;;;;;;12.85;56.53;93898.38;6165917;23;20001;-81
2022/09/26 00:24:03;;;;;;;10.15;4.20;;;;;;;12.75;55.85;93884.63;6165771;23;19998;-80
2022/09/26 00:26:30;;;;;;;8.70;3.63;;;;;;;12.76;55.54;93889.66;6165779;23;20030;-81
2022/09/26 00:28:57;;;;;;;8.32;3.53;;;;;;;12.76;56.51;93889.66;6165909;23;20184;-81
2022/09/26 00:31:28;;;;;;;7.40;3.25;;;;;;;12.73;56.74;93876.13;6165706;23;20009;-81
2022/09/26 00:33:55;;;;;;;6.53;3.78;;;;;;;12.73;57.01;93884.16;6165801;23;20005;-81
2022/09/26 00:36:21;;;;;;;8.35;4.70;;;;;;;12.69;57.41;93878.66;6166001;23;20004;-80
2022/09/26 00:38:46;;;;;;;8.98;3.85;;;;;;;12.70;57.95;93884.78;6165950;23;19997;-80
2022/09/26 00:41:13;;;;;;;11.82;3.78;;;;;;;12.70;57.09;93890.94;6166119;23;19998;-79
2022/09/26 00:43:45;;;;;;;5.20;3.67;;;;;;;12.69;57.41;93891.25;6165525;23;20199;-79
2022/09/26 00:46:31;;;;;;;8.45;4.00;;;;;;;12.65;57.39;93888.44;6166015;23;19997;-79
2022/09/26 00:49:21;;;;;;;6.93;3.90;;;;;;;12.67;57.05;93890.81;6164056;23;19997;-79
2022/09/26 00:52:02;;;;;;;5.95;3.58;;;;;;;12.67;56.63;93874.75;6165617;23;20005;-80
2022/09/26 00:54:29;;;;;;;6.10;3.60;;;;;;;12.70;57.05;93874.09;6165875;23;20001;-80
2022/09/26 00:56:59;;;;;;;7.60;3.30;;;;;;;12.73;56.85;93878.81;6166289;23;19998;-79
2022/09/26 00:59:30;;;;;;;5.82;3.05;;;;;;;12.73;56.72;93871.56;6166017;23;20001;-79
2022/09/26 01:01:57;;;;;;;7.25;3.15;;;;;;;12.75;56.72;93865.91;6165377;23;20315;-79
2022/09/26 01:04:27;;;;;;;5.05;2.95;;;;;;;12.77;57.74;93869.81;6165633;23;20008;-81
2022/09/26 01:06:57;;;;;;;6.55;3.70;;;;;;;12.75;57.95;93864.00;6164331;23;20064;-81
2022/09/26 01:09:23;;;;;;;4.95;3.03;;;;;;;12.72;57.76;93864.66;6165556;23;20274;-80
2022/09/26 01:11:48;;;;;;;7.30;3.20;;;;;;;12.72;58.00;93871.88;6165629;23;20001;-81
2022/09/26 01:14:14;;;;;;;9.52;3.00;;;;;;;12.68;57.73;93870.97;6166004;23;20001;-80
2022/09/26 01:16:44;;;;;;;5.07;3.35;;;;;;;12.68;56.78;93874.44;6165572;23;20194;-81
2022/09/26 01:19:32;;;;;;;5.03;2.97;;;;;;;12.75;56.63;93858.66;6165823;23;20002;-80
2022/09/26 01:22:17;;;;;;;6.40;2.83;;;;;;;12.80;57.28;93861.13;6165523;23;19997;-79
2022/09/26 01:24:57;;;;;;;6.55;3.45;;;;;;;12.83;57.74;93860.47;6164951;23;20001;-80
2022/09/26 01:27:47;;;;;;;9.70;2.85;;;;;;;12.79;57.32;93864.13;6165322;23;20058;-79
2022/09/26 01:30:20;;;;;;;5.53;3.47;;;;;;;12.74;57.88;93862.44;6165341;23;20009;-80
2022/09/26 01:33:10;;;;;;;6.82;3.40;;;;;;;12.76;58.06;93860.22;6165483;23;20164;-80
2022/09/26 01:35:41;;;;;;;7.35;3.58;;;;;;;12.72;58.16;93870.00;6165279;23;20009;-80
2022/09/26 01:38:19;;;;;;;6.80;3.70;;;;;;;12.68;57.66;93871.78;6164683;23;20001;-81
2022/09/26 01:40:48;;;;;;;8.00;3.35;;;;;;;12.61;57.52;93874.94;6165166;23;20005;-81
2022/09/26 01:43:20;;;;;;;9.18;3.33;;;;;;;12.67;56.97;93866.75;6165248;23;19993;-81
2022/09/26 01:45:53;;;;;;;5.57;3.50;;;;;;;12.68;57.19;93854.91;6165402;23;20276;-81
2022/09/26 01:48:27;;;;;;;7.93;3.47;;;;;;;12.70;57.19;93860.72;6165064;23;19997;-82
2022/09/26 01:51:16;;;;;;;7.82;3.10;;;;;;;12.78;56.83;93865.22;6163745;23;20251;-80
2022/09/26 01:53:54;;;;;;;8.63;3.22;;;;;;;12.79;56.29;93870.25;6147444;23;20234;-80
2022/09/26 01:56:24;;;;;;;7.30;2.70;;;;;;;12.82;56.86;93861.59;6165257;23;20060;-80
2022/09/26 01:59:08;;;;;;;5.97;3.17;;;;;;;12.89;57.57;93852.25;6164880;23;20053;-80
2022/09/26 02:01:42;;;;;;;6.65;2.70;;;;;;;12.94;58.15;93850.16;6165199;23;20199;-79
2022/09/26 02:04:13;;;;;;;9.40;3.50;;;;;;;13.00;58.38;93850.75;6164920;23;20192;-80
2022/09/26 02:06:47;;;;;;;7.22;3.42;;;;;;;12.99;58.58;93844.63;6164957;23;20176;-80
2022/09/26 02:09:24;;;;;;;7.53;3.70;;;;;;;13.05;58.56;93835.28;6164961;23;20011;-80
2022/09/26 02:11:55;;;;;;;5.45;3.72;;;;;;;13.13;58.61;93835.53;6164957;23;20260;-79
2022/09/26 02:14:33;;;;;;;9.82;4.15;;;;;;;13.21;59.19;93840.03;6164792;23;20001;-79
2022/09/26 02:17:21;;;;;;;10.45;5.18;;;;;;;13.25;59.73;93835.56;6164608;23;20001;-79
2022/09/26 02:19:57;;;;;;;13.02;4.60;;;;;;;13.24;58.92;93836.69;6164770;23;20012;-79
2022/09/26 02:22:26;;;;;;;14.10;5.13;;;;;;;13.28;59.29;93829.53;6164666;23;20221;-80
2022/09/26 02:24:52;;;;;;;9.65;4.47;;;;;;;13.33;59.05;93837.41;6164751;23;20199;-80
2022/09/26 02:27:18;;;;;;;10.10;4.63;;;;;;;13.28;57.43;93829.53;6165018;23;20075;-80
2022/09/26 02:29:44;;;;;;;7.28;4.15;;;;;;;13.29;57.54;93833.00;6164926;23;20296;-80
2022/09/26 02:32:20;;;;;;;6.32;3.88;;;;;;;13.22;57.70;93830.88;6164623;23;19993;-80
2022/09/26 02:34:47;;;;;;;5.78;3.83;;;;;;;13.20;57.61;93825.06;6164758;23;20001;-80
2022/09/26 02:37:16;;;;;;;7.22;3.40;;;;;;;13.19;58.00;93816.25;6164921;23;20045;-80
2022/09/26 02:39:45;;;;;;;9.18;3.92;;;;;;;13.22;58.86;93810.22;6164694;23;20203;-80
2022/09/26 02:42:23;;;;;;;7.63;3.75;;;;;;;13.27;59.36;93805.78;6165000;23;20256;-80
2022/09/26 02:45:02;;;;;;;7.25;3.92;;;;;;;13.25;59.59;93816.84;6164721;23;20001;-80
2022/09/26 02:47:46;;;;;;;8.40;4.28;;;;;;;13.25;59.73;93803.47;6164589;23;20311;-81
2022/09/26 02:50:30;;;;;;;10.85;4.47;;;;;;;13.29;59.22;93804.41;6164775;23;20006;-80
2022/09/26 02:53:03;;;;;;;7.53;3.80;;;;;;;13.35;60.04;93804.94;6164599;23;20005;-80
2022/09/26 02:55:54;;;;;;;9.80;4.40;;;;;;;13.36;60.87;93807.28;6163335;23;20287;-80
2022/09/26 02:58:52;;;;;;;7.75;4.00;;;;;;;13.37;60.82;93798.16;6164841;23;20048;-80
2022/09/26 03:01:46;;;;;;;5.75;3.72;;;;;;;13.34;60.39;93796.13;6163553;23;20002;-81
2022/09/26 03:04:30;;;;;;;9.60;4.10;;;;;;;13.37;60.38;93800.03;6150128;23;20005;-81
2022/09/26 03:07:00;;;;;;;11.65;4.47;;;;;;;13.40;60.47;93794.03;6164374;23;20001;-80
2022/09/26 03:09:28;;;;;;;7.47;4.55;;;;;;;13.40;60.76;93786.78;6164729;23;20017;-80
2022/09/26 03:11:54;;;;;;;6.28;3.45;;;;;;;13.46;60.91;93791.94;6164349;23;19993;-80
2022/09/26 03:14:22;;;;;;;9.68;4.43;;;;;;;13.47;60.89;93793.47;6164090;23;20032;-80
2022/09/26 03:16:50;;;;;;;8.55;4.60;;;;;;;13.50;60.76;93795.50;6164482;23;20005;-80
2022/09/26 03:19:21;;;;;;;10.13;4.57;;;;;;;13.51;60.74;93792.47;6164653;23;20009;-80
2022/09/26 03:21:47;;;;;;;12.85;4.38;;;;;;;13.50;60.79;93784.81;6164336;23;20006;-81
2022/09/26 03:24:16;;;;;;;23.05;6.03;;;;;;;13.56;60.72;93786.91;6164673;23;20012;-81
2022/09/26 03:26:41;;;;;;;18.88;4.55;;;;;;;13.54;60.37;93783.78;6164411;23;20008;-81
2022/09/26 03:29:07;;;;;;;8.18;4.20;;;;;;;13.56;59.35;93784.25;6164639;23;20056;-81
2022/09/26 03:31:33;;;;;;;9.60;4.25;;;;;;;13.59;59.23;93770.16;6164418;23;20323;-80
2022/09/26 03:33:58;;;;;;;9.02;4.18;;;;;;;13.61;59.36;93772.53;6164686;23;20008;-80
2022/09/26 03:36:24;;;;;;;7.80;4.32;;;;;;;13.66;59.42;93772.31;6164634;23;20017;-80
2022/09/26 03:38:50;;;;;;;11.02;4.22;;;;;;;13.69;59.65;93776.22;6164664;23;20024;-81
2022/09/26 03:41:15;;;;;;;7.97;4.40;;;;;;;13.69;59.31;93771.63;6164281;23;20002;-80
2022/09/26 03:43:42;;;;;;;7.18;4.05;;;;;;;13.71;59.70;93766.72;6163208;23;20009;-81
2022/09/26 03:46:10;;;;;;;11.60;4.30;;;;;;;13.67;59.82;93771.19;6164517;23;20008;-80
2022/09/26 03:48:36;;;;;;;8.25;4.63;;;;;;;13.69;59.30;93773.53;6164425;23;20012;-80
2022/09/26 03:51:09;;;;;;;15.55;4.90;;;;;;;13.64;58.93;93769.19;6164189;23;20005;-80
2022/09/26 03:53:38;;;;;;;9.98;4.07;;;;;;;13.65;58.60;93776.88;6164271;23;20153;-80
2022/09/26 03:56:12;;;;;;;7.65;4.38;;;;;;;13.56;58.94;93791.50;6164189;23;20010;-80
2022/09/26 03:58:38;;;;;;;9.05;4.32;;;;;;;13.47;58.90;93783.53;6164305;23;20017;-81
2022/09/26 04:01:06;;;;;;;11.43;4.07;;;;;;;13.48;59.25;93782.44;6165056;23;20002;-79
2022/09/26 04:03:36;;;;;;;12.75;4.63;;;;;;;13.46;59.59;93776.66;6166278;23;20005;-80
2022/09/26 04:06:09;;;;;;;8.27;5.20;;;;;;;13.46;60.28;93778.53;6165982;23;19993;-80
2022/09/26 04:08:40;;;;;;;5.28;4.18;;;;;;;13.39;60.73;93769.16;6166012;23;20303;-80
2022/09/26 04:11:11;;;;;;;10.55;4.55;;;;;;;13.26;60.45;93772.88;6166311;23;20032;-82
2022/09/26 04:13:37;;;;;;;13.77;4.53;;;;;;;13.18;60.67;93771.09;6166002;23;20010;-82
2022/09/26 04:16:07;;;;;;;11.85;5.03;;;;;;;13.18;61.21;93776.44;6166345;23;19998;-82
2022/09/26 04:18:34;;;;;;;12.93;4.80;;;;;;;13.19;61.80;93770.00;6166262;23;20002;-81
2022/09/26 04:21:01;;;;;;;13.20;5.30;;;;;;;13.20;62.21;93780.34;6166023;23;20017;-82
2022/09/26 04:23:29;;;;;;;9.82;5.28;;;;;;;13.22;62.16;93785.38;6165895;23;20199;-82
2022/09/26 04:25:55;;;;;;;9.88;6.50;;;;;;;13.28;62.34;93778.69;6165855;23;20001;-81
2022/09/26 04:28:22;;;;;;;13.05;4.50;;;;;;;13.32;62.19;93779.63;6165998;23;20012;-81
2022/09/26 04:30:48;;;;;;;14.38;5.07;;;;;;;13.36;62.11;93780.53;6165908;23;20060;-81
2022/09/26 04:33:14;;;;;;;12.20;5.03;;;;;;;13.42;61.62;93776.53;6165981;23;19997;-82
2022/09/26 04:35:39;;;;;;;18.33;5.45;;;;;;;13.46;61.40;93787.34;6165884;23;20008;-81
2022/09/26 04:38:05;;;;;;;12.48;4.90;;;;;;;13.54;61.53;93791.06;6165934;23;19997;-81
2022/09/26 04:40:31;;;;;;;12.68;6.55;;;;;;;13.59;61.29;93791.59;6165904;23;20001;-81
2022/09/26 04:42:57;;;;;;;10.15;5.18;;;;;;;13.65;60.89;93794.84;6165686;23;20004;-81
2022/09/26 04:45:23;;;;;;;10.25;4.90;;;;;;;13.71;60.38;93790.81;6165631;23;20002;-81
2022/09/26 04:47:49;;;;;;;10.38;4.38;;;;;;;13.78;60.75;93779.56;6165770;23;19997;-82
2022/09/26 04:50:15;;;;;;;12.68;5.40;;;;;;;13.83;60.77;93785.47;6165015;23;20012;-82
2022/09/26 04:52:40;;;;;;;13.02;5.38;;;;;;;13.87;60.67;93779.47;6166406;23;20001;-82
2022/09/26 04:55:06;;;;;;;10.68;5.53;;;;;;;13.91;60.76;93772.31;6165760;23;20061;-82
2022/09/26 04:57:32;;;;;;;14.00;4.68;;;;;;;13.92;60.69;93768.50;6165888;23;19997;-82
2022/09/26 04:59:57;;;;;;;15.68;4.70;;;;;;;13.91;60.26;93772.31;6166057;23;20024;-82
2022/09/26 05:02:23;;;;;;;10.93;4.30;;;;;;;13.94;60.06;93777.00;6165779;23;19997;-81
2022/09/26 05:04:50;;;;;;;8.25;4.65;;;;;;;13.92;59.13;93773.88;6165329;23;19997;-81
2022/09/26 05:07:17;;;;;;;15.95;5.28;;;;;;;13.98;59.50;93776.00;6165783;23;20216;-81
2022/09/26 05:09:43;;;;;;;11.23;5.03;;;;;;;14.04;59.86;93774.66;6165988;23;20239;-81
2022/09/26 05:12:09;;;;;;;15.65;4.10;;;;;;;14.04;58.76;93773.84;6165094;23;20000;-80
2022/09/26 05:14:35;;;;;;;9.02;5.10;;;;;;;14.11;58.95;93773.31;6165760;23;20009;-81
2022/09/26 05:17:01;;;;;;;9.38;4.13;;;;;;;14.16;59.05;93765.78;6165452;23;19993;-81
2022/09/26 05:19:26;;;;;;;10.95;4.72;;;;;;;14.24;58.50;93758.75;6165674;23;20044;-81
2022/09/26 05:21:52;;;;;;;10.93;4.63;;;;;;;14.32;58.19;93762.44;6165273;23;20048;-81
2022/09/26 05:27:05;;;;;;;16.45;6.20;;;;;;;14.44;58.27;93759.72;6165215;23;20008;-81
2022/09/26 05:29:30;;;;;;;30.48;7.72;;;;;;;14.46;58.26;93762.84;6165309;23;20203;-81
2022/09/26 05:31:56;;;;;;;19.13;5.68;;;;;;;14.53;58.13;93759.56;6165197;23;20057;-81
2022/09/26 05:34:23;;;;;;;28.75;6.57;;;;;;;14.64;58.44;93747.28;6165254;23;20021;-81
2022/09/26 05:36:50;;;;;;;20.10;6.85;;;;;;;14.73;58.21;93745.22;6165022;23;20191;-81
2022/09/26 05:42:00;;;;;;;24.98;7.30;;;;;;;14.85;57.40;93750.53;6165088;23;20087;-82
2022/09/26 05:44:27;;;;;;;26.67;7.43;;;;;;;14.91;57.04;93740.34;6165232;23;20001;-82
2022/09/26 05:46:56;;;;;;;25.33;7.30;;;;;;;14.99;57.20;93741.31;6165333;23;20001;-83
2022/09/26 05:49:21;;;;;;;29.90;7.75;;;;;;;15.02;57.46;93746.78;6165287;23;20200;-83
2022/09/26 05:51:47;;;;;;;14.02;6.78;;;;;;;15.10;59.01;93757.69;6164912;23;19993;-82
2022/09/26 05:54:13;;;;;;;24.48;6.55;;;;;;;15.13;59.09;93757.81;6165332;23;20048;-82
2022/09/26 05:56:38;;;;;;;20.23;7.50;;;;;;;15.15;58.62;93752.88;6165011;23;20321;-82
2022/09/26 05:59:04;;;;;;;18.98;6.72;;;;;;;15.20;58.30;93758.00;6164855;23;20126;-81
2022/09/26 06:01:32;;;;;;;31.17;8.13;;;;;;;15.31;59.19;93762.88;6164879;23;20009;-81
2022/09/26 06:03:57;;;;;;;32.97;9.75;;;;;;;15.40;58.85;93761.56;6163295;23;20203;-82
2022/09/26 06:06:23;;;;;;;30.55;7.57;;;;;;;15.50;57.18;93762.94;6165055;23;20000;-82
2022/09/26 06:08:49;;;;;;;34.05;8.27;;;;;;;15.57;55.77;93749.72;6164898;23;20069;-82
2022/09/26 06:11:17;;;;;;;32.40;8.68;;;;;;;15.64;56.28;93751.78;6165154;23;20044;-83
2022/09/26 06:13:47;;;;;;;43.95;9.75;;;;;;;15.77;55.81;93755.97;6165271;23;20001;-82
2022/09/26 06:16:17;;;;;;;31.40;9.20;;;;;;;15.82;55.01;93763.75;6164982;23;20045;-82
2022/09/26 06:18:43;;;;;;;23.90;9.05;;;;;;;15.86;55.17;93765.75;6164990;23;19998;-87
2022/09/26 06:21:11;;;;;;;25.27;7.30;;;;;;;15.97;55.28;93767.56;6164695;23;20032;-75
2022/09/26 06:23:37;;;;;;;21.60;7.28;;;;;;;16.09;54.30;93763.97;6165044;23;20196;-73
2022/09/26 06:26:07;;;;;;;29.20;8.27;;;;;;;16.20;53.49;93759.63;6165210;23;20001;-73
2022/09/26 06:28:34;;;;;;;28.35;7.50;;;;;;;16.23;53.61;93766.22;6164782;23;20168;-73
2022/09/26 06:31:06;;;;;;;36.80;9.88;;;;;;;16.30;53.62;93763.66;6163937;23;20024;-73
2022/09/26 06:33:32;;;;;;;28.15;6.55;;;;;;;16.32;53.46;93761.41;6164586;23;19998;-74
2022/09/26 06:36:08;;;;;;;26.55;7.07;;;;;;;16.36;53.06;93766.88;6164874;23;20008;-73
2022/09/26 06:38:34;;;;;;;23.77;6.47;;;;;;;16.49;52.50;93759.47;6164847;23;20198;-74
2022/09/26 06:41:00;;;;;;;11.68;4.45;;;;;;;16.56;51.74;93746.94;6164750;23;20001;-74
2022/09/26 06:43:26;;;;;;;19.63;5.82;;;;;;;16.64;50.25;93753.25;6164083;23;19997;-74
2022/09/26 06:45:52;;;;;;;9.13;4.25;;;;;;;16.67;49.20;93751.75;6164982;23;20203;-73
2022/09/26 06:48:21;;;;;;;8.07;4.43;;;;;;;16.76;48.73;93741.56;6164557;23;20003;-74
2022/09/26 06:50:51;;;;;;;10.30;4.10;;;;;;;16.85;47.51;93744.84;6164630;23;20008;-78
2022/09/26 06:53:17;;;;;;;18.23;5.20;;;;;;;16.87;48.24;93753.34;6165000;23;20001;-85
2022/09/26 06:55:43;;;;;;;14.35;4.82;;;;;;;16.87;48.21;93747.94;6165406;23;20033;-79
2022/09/26 06:58:13;;;;;;;10.98;4.50;;;;;;;16.94;48.54;93756.19;6164777;23;19997;-79
2022/09/26 07:00:39;;;;;;;11.50;3.58;;;;;;;17.02;47.87;93760.56;6165087;23;20201;-79
2022/09/26 07:03:06;;;;;;;6.15;3.65;;;;;;;17.09;46.03;93749.13;6164765;23;20308;-80
2022/09/26 07:05:32;;;;;;;6.78;3.58;;;;;;;17.18;45.26;93751.63;6164212;23;20028;-79
2022/09/26 07:07:57;;;;;;;11.23;3.60;;;;;;;17.28;45.52;93763.72;6164881;23;20001;-81
2022/09/26 07:10:23;;;;;;;11.13;4.35;;;;;;;17.38;45.22;93755.84;6164844;23;19998;-82
2022/09/26 07:12:49;;;;;;;7.65;3.55;;;;;;;17.51;44.78;93766.44;6164616;23;20291;-82
2022/09/26 07:15:18;;;;;;;5.63;3.30;;;;;;;17.61;44.77;93755.06;6165175;23;20243;-82
2022/09/26 07:17:45;;;;;;;15.23;4.15;;;;;;;17.70;43.74;93760.97;6164942;23;19997;-81
2022/09/26 07:20:13;;;;;;;11.85;3.72;;;;;;;17.73;43.58;93765.66;6164101;23;20012;-80
2022/09/26 07:22:38;;;;;;;8.95;3.90;;;;;;;17.76;43.44;93762.22;6164789;23;20004;-80
2022/09/26 07:25:05;;;;;;;9.07;3.83;;;;;;;17.76;43.33;93767.63;6165238;23;20002;-82
2022/09/26 07:27:34;;;;;;;11.88;3.50;;;;;;;17.85;43.60;93759.34;6165113;23;20019;-84
2022/09/26 07:30:00;;;;;;;11.18;3.90;;;;;;;17.91;43.45;93763.28;6165110;23;20203;-84
2022/09/26 07:32:30;;;;;;;11.68;6.32;;;;;;;17.94;43.20;93765.25;6165040;23;20243;-85
2022/09/26 07:34:58;;;;;;;8.63;4.40;;;;;;;17.98;42.56;93760.69;6165152;23;20006;-86
2022/09/26 07:37:28;;;;;;;11.88;4.13;;;;;;;17.90;42.98;93750.16;6166027;23;20187;-81
2022/09/26 07:39:56;;;;;;;10.30;4.50;;;;;;;17.86;42.98;93754.72;6166907;23;20199;-85
2022/09/26 07:42:22;;;;;;;9.43;3.90;;;;;;;17.88;43.60;93764.00;6165425;23;20005;-82
2022/09/26 07:44:50;;;;;;;9.95;3.90;;;;;;;17.60;43.23;93761.56;6165452;23;20010;-86
2022/09/26 07:50:14;;;;;;;7.35;3.05;;;;;;;17.39;42.32;93760.06;6167162;23;20045;-84
2022/09/26 07:52:45;;;;;;;11.27;3.15;;;;;;;17.45;43.65;93750.56;6167334;23;20065;-86
2022/09/26 07:55:14;;;;;;;13.98;3.70;;;;;;;17.42;44.11;93748.59;6167527;23;20002;-81
2022/09/26 07:57:42;;;;;;;10.82;3.03;;;;;;;17.42;42.58;93748.59;6166952;23;20283;-84
2022/09/26 08:00:11;;;;;;;12.18;3.45;;;;;;;17.49;43.06;93747.94;6167240;23;20173;-83
2022/09/26 08:02:41;;;;;;;10.07;3.25;;;;;;;17.55;42.54;93734.94;6166987;23;20056;-83
2022/09/26 08:05:08;;;;;;;8.68;3.53;;;;;;;17.64;42.33;93727.38;6166951;23;20318;-83
2022/09/26 08:07:34;;;;;;;12.43;2.90;;;;;;;17.71;42.46;93724.81;6167246;23;20017;-81
2022/09/26 08:10:04;;;;;;;7.22;3.03;;;;;;;17.74;41.97;93726.00;6166725;23;19997;-81
2022/09/26 08:12:38;;;;;;;8.05;3.10;;;;;;;17.79;40.84;93721.09;6166567;23;20001;-81
2022/09/26 08:15:07;;;;;;;6.43;3.40;;;;;;;17.78;41.26;93713.34;6166561;23;20005;-81
2022/09/26 08:17:33;;;;;;;5.57;2.83;;;;;;;17.81;42.00;93713.41;6166579;23;20230;-81
2022/09/26 08:20:00;;;;;;;6.55;3.28;;;;;;;17.88;42.87;93712.75;6166325;23;20005;-82
2022/09/26 08:22:29;;;;;;;8.18;3.30;;;;;;;18.01;41.57;93707.94;6166811;23;20065;-82
2022/09/26 08:24:55;;;;;;;5.75;2.85;;;;;;;17.82;41.57;93698.78;6166776;23;20005;-79
2022/09/26 08:27:24;;;;;;;5.25;3.05;;;;;;;17.99;42.20;93694.03;6166495;23;20021;-80
2022/09/26 08:29:50;;;;;;;8.77;3.28;;;;;;;18.12;40.95;93692.69;6166324;23;20001;-78
2022/09/26 08:32:18;;;;;;;11.85;3.00;;;;;;;18.08;41.60;93691.88;6165963;23;20071;-80
2022/09/26 08:34:45;;;;;;;16.98;2.78;;;;;;;18.04;42.78;93693.75;6166162;23;20311;-82
2022/09/26 08:37:12;;;;;;;5.25;3.15;;;;;;;18.03;41.91;93705.66;6166138;23;20010;-78
2022/09/26 08:39:38;;;;;;;16.15;3.38;;;;;;;18.02;42.13;93704.13;6164762;23;20000;-79
2022/09/26 08:42:06;;;;;;;7.03;2.47;;;;;;;17.93;43.26;93709.78;6165573;23;20108;-70
2022/09/26 08:44:54;;;;;;;4.85;2.58;;;;;;;17.88;42.70;93709.31;6165320;23;20016;-70
2022/09/26 08:47:40;;;;;;;16.40;3.35;;;;;;;17.84;42.14;93682.28;6165528;23;20093;-70
2022/09/26 08:50:20;;;;;;;16.80;4.07;;;;;;;17.89;42.28;93691.97;6165830;23;20005;-71
2022/09/26 08:52:55;;;;;;;10.20;2.90;;;;;;;17.96;42.54;93700.94;6165677;23;20001;-70
2022/09/26 08:55:26;;;;;;;14.18;3.70;;;;;;;18.02;42.25;93691.41;6164368;23;20064;-70
2022/09/26 08:58:01;;;;;;;12.80;3.35;;;;;;;18.12;42.02;93695.41;6165682;23;20013;-69
2022/09/26 09:00:36;;;;;;;13.75;3.70;;;;;;;18.27;43.06;93696.34;6165175;23;20068;-70
2022/09/26 09:03:27;;;;;;;12.80;3.72;;;;;;;18.42;41.99;93686.53;6165538;23;20183;-70
2022/09/26 09:06:03;;;;;;;6.97;3.30;;;;;;;18.53;41.49;93692.84;6165676;23;20009;-70
2022/09/26 09:08:43;;;;;;;9.15;3.30;;;;;;;18.68;42.58;93684.91;6165047;23;20052;-70
2022/09/26 09:11:19;;;;;;;16.58;4.93;;;;;;;18.75;41.09;93688.47;6165124;23;20008;-71
2022/09/26 09:14:12;;;;;;;7.15;2.70;;;;;;;18.85;41.00;93684.38;6165636;23;19997;-70
2022/09/26 09:17:23;;;;;;;9.77;3.55;;;;;;;18.93;44.69;93672.50;6165578;23;20239;-69
2022/09/26 09:20:34;;;;;;;12.63;3.97;;;;;;;18.95;42.45;93674.81;6165428;23;20068;-71
2022/09/26 09:23:09;;;;;;;15.80;4.15;;;;;;;19.02;41.19;93680.28;6165342;23;19998;-69
2022/09/26 09:26:03;;;;;;;13.38;4.28;;;;;;;19.15;40.98;93678.09;6165079;23;20005;-69
2022/09/26 09:28:56;;;;;;;10.85;4.43;;;;;;;19.31;40.81;93665.13;6112872;23;20203;-70
2022/09/26 09:31:24;;;;;;;8.98;3.35;;;;;;;19.53;39.78;93665.31;6165036;23;20005;-70
2022/09/26 09:33:59;;;;;;;14.82;4.03;;;;;;;19.70;39.71;93661.97;6165206;23;20052;-70
2022/09/26 09:36:38;;;;;;;10.45;3.90;;;;;;;20.00;40.24;93658.31;6165230;23;19997;-70
2022/09/26 09:39:23;;;;;;;8.88;3.88;;;;;;;20.27;40.46;93660.78;6165251;23;20016;-70
2022/09/26 09:42:01;;;;;;;20.95;4.00;;;;;;;20.47;39.08;93650.44;6164915;23;20006;-70
2022/09/26 09:44:48;;;;;;;15.13;4.15;;;;;;;20.66;38.66;93652.88;6165051;23;19997;-70
2022/09/26 09:47:16;;;;;;;11.40;3.85;;;;;;;20.69;38.50;93657.50;6164847;23;20280;-70
2022/09/26 09:49:48;;;;;;;8.25;3.47;;;;;;;20.79;38.63;93645.94;6164844;23;20008;-71
2022/09/26 09:52:32;;;;;;;11.35;3.55;;;;;;;20.91;38.18;93644.81;6165189;23;20199;-71
2022/09/26 09:55:17;;;;;;;10.10;3.55;;;;;;;21.04;37.68;93654.13;6165051;23;20052;-71
2022/09/26 09:58:12;;;;;;;14.70;4.25;;;;;;;21.25;37.93;93644.47;6164644;23;20024;-71
2022/09/26 10:00:48;;;;;;;11.35;3.97;;;;;;;21.42;37.28;93622.03;6165018;23;19997;-71
2022/09/26 10:03:29;;;;;;;19.15;5.25;;;;;;;21.51;37.23;93604.59;6164977;23;20008;-72
2022/09/26 10:06:00;;;;;;;34.30;4.20;;;;;;;21.61;36.74;93622.81;6163828;23;20001;-71
2022/09/26 10:08:30;;;;;;;10.18;3.78;;;;;;;21.50;36.94;93625.53;6165090;23;19998;-72
2022/09/26 10:11:38;;;;;;;15.75;4.10;;;;;;;21.50;36.58;93614.69;6165114;23;20013;-72
2022/09/26 10:14:12;;;;;;;11.55;4.50;;;;;;;21.56;37.04;93615.84;6165172;23;20247;-72
2022/09/26 10:17:09;;;;;;;9.98;3.15;;;;;;;21.70;36.39;93628.63;6164814;23;20021;-72
2022/09/26 10:19:37;;;;;;;17.77;4.10;;;;;;;21.76;36.95;93635.19;6164766;23;20002;-72
2022/09/26 10:22:08;;;;;;;9.65;2.78;;;;;;;21.87;36.77;93647.97;6164372;23;20231;-72
2022/09/26 10:24:39;;;;;;;8.73;3.00;;;;;;;21.96;36.39;93634.75;6164646;23;20205;-72
2022/09/26 10:27:37;;;;;;;5.38;2.80;;;;;;;22.08;34.94;93626.22;6164817;23;20291;-72
2022/09/26 10:30:20;;;;;;;10.35;3.10;;;;;;;22.19;35.63;93618.06;6164836;23;20020;-76
2022/09/26 10:32:46;;;;;;;;;;;;;;;22.30;35.21;93613.38;6165633;23;19997;-78
2022/09/26 10:35:18;;;;;;;6.88;2.78;;;;;;;22.38;34.80;93611.41;6164916;23;19919;-79
2022/09/26 10:38:05;;;;;;;10.25;4.07;;;;;;;22.40;35.60;93600.94;6164978;23;20000;-78
2022/09/26 10:40:47;;;;;;;11.02;3.30;;;;;;;22.62;35.42;93593.47;6164963;23;20005;-75
2022/09/26 10:43:36;;;;;;;11.93;3.23;;;;;;;22.88;35.38;93589.44;6165463;23;20001;-75
2022/09/26 10:46:14;;;;;;;7.20;3.30;;;;;;;23.19;35.24;93584.97;6164965;23;20008;-79
2022/09/26 10:48:47;;;;;;;12.13;2.88;;;;;;;23.38;34.40;93583.66;6165114;23;20321;-72
2022/09/26 10:51:26;;;;;;;10.88;2.80;;;;;;;23.60;33.85;93589.69;6165091;23;20052;-75
2022/09/26 10:54:02;;;;;;;7.78;3.00;;;;;;;23.74;33.29;93575.19;6165290;23;20044;-87
2022/09/26 10:56:31;;;;;;;14.23;3.00;;;;;;;23.90;33.72;93582.84;6165596;23;19997;-76
2022/09/26 10:59:04;;;;;;;9.90;3.42;;;;;;;23.79;32.86;93572.06;6164742;23;20029;-77
2022/09/26 11:01:31;;;;;;;14.70;3.28;;;;;;;23.99;32.99;93563.28;6164809;23;20350;-75
2022/09/26 11:05:55;;;;;;;17.10;3.80;;;;;;;24.19;32.93;93566.94;6164633;23;20005;-78
2022/09/26 11:07:04;;;;;;;9.60;3.30;;;;;;;24.32;33.12;93564.47;6164570;23;20005;-75
2022/09/26 11:09:30;;;;;;;9.90;3.53;;;;;;;24.48;33.55;93569.31;6164612;23;20250;-74
2022/09/26 11:11:55;;;;;;;17.73;3.70;;;;;;;24.63;32.46;93562.56;6164622;23;19993;-73
2022/09/26 11:14:29;;;;;;;7.78;2.90;;;;;;;24.70;32.08;93558.94;6164874;23;20062;-73
2022/09/26 11:16:55;;;;;;;17.50;3.58;;;;;;;24.72;31.82;93553.09;6164669;23;20072;-75
2022/09/26 11:19:39;;;;;;;12.30;2.83;;;;;;;24.81;32.40;93569.69;6162762;23;20012;-74
2022/09/26 11:22:24;;;;;;;17.92;3.08;;;;;;;24.90;31.84;93559.06;6164498;23;20022;-74
2022/09/26 11:25:13;;;;;;;8.23;2.72;;;;;;;25.04;31.89;93558.09;6164654;23;20005;-75
2022/09/26 11:28:07;;;;;;;8.77;2.10;;;;;;;25.23;31.31;93545.72;6165064;23;20008;-75
2022/09/26 11:30:40;;;;;;;7.10;3.05;;;;;;;25.38;31.16;93533.41;6164050;23;20069;-73
2022/09/26 11:33:12;;;;;;;9.82;2.53;;;;;;;25.58;31.06;93535.41;6163106;23;20334;-76
2022/09/26 11:35:51;;;;;;;;;;;;;;;25.53;31.39;93528.47;6164945;23;20057;-80
2022/09/26 11:38:38;;;;;;;7.75;2.05;;;;;;;25.35;30.72;93515.13;6164597;23;20246;-72
2022/09/26 11:41:37;;;;;;;6.30;1.98;;;;;;;25.32;30.74;93501.56;6164569;23;19989;-75
2022/09/26 11:44:24;;;;;;;6.97;2.35;;;;;;;25.40;30.87;93508.44;6164570;23;20013;-76
2022/09/26 11:46:58;;;;;;;5.32;2.05;;;;;;;25.52;31.53;93496.16;6164419;23;20181;-74
2022/09/26 11:50:12;;;;;;;10.68;2.70;;;;;;;25.78;31.51;93499.97;6164719;23;20048;-72
2022/09/26 11:53:04;;;;;;;8.00;2.05;;;;;;;25.98;29.99;93491.81;6153223;23;20247;-73
2022/09/26 11:55:54;;;;;;;8.38;2.72;;;;;;;26.09;29.36;93486.88;6164391;23;20367;-72
2022/09/26 11:58:37;;;;;;;27.45;3.47;;;;;;;26.16;30.41;93477.81;6164426;23;19997;-74
2022/09/26 12:01:18;;;;;;;10.82;2.88;;;;;;;26.25;30.31;93474.50;6164104;23;20292;-73
2022/09/26 12:04:10;;;;;;;9.25;2.63;;;;;;;26.37;29.71;93482.78;6164205;23;20005;-75